Time;durP1;ratioP1;P1;durP2;ratioP2;P2;SDS_P1;SDS_P2;PMS_P1;PMS_P2;Temp;Humidity;BMP_temperature;BMP_pressure;BME280_temperature;BME280_humidity;BME280_pressure;Samples;Min_cycle;Max_cycle;Signal;HPM_P1;HPM_P2
2022/07/25 00:00:05;;;;;;;;;;;;;;;23.69;56.14;100985.31;5082545;28;19999;-57
2022/07/25 00:02:30;;;;;;;;;;;;;;;23.68;55.94;100989.06;5090114;28;19983;-56
2022/07/25 00:04:55;;;;;;;;;;;;;;;23.67;56.18;100982.00;5085390;28;19963;-56
2022/07/25 00:07:20;;;;;;;;;;;;;;;23.64;56.14;100979.81;5078470;28;20528;-57
2022/07/25 00:09:45;;;;;;;;;;;;;;;23.61;56.16;100974.88;5072868;28;19927;-58
2022/07/25 00:12:11;;;;;;;;;;;;;;;23.59;56.17;100963.47;5078539;28;19942;-57
2022/07/25 00:14:36;;;;;;;;;;;;;;;23.56;56.09;100969.38;5076000;28;19929;-58
2022/07/25 00:17:01;;;;;;;;;;;;;;;23.54;56.11;100966.09;5072452;28;20015;-57
2022/07/25 00:19:26;;;;;;;;;;;;;;;23.54;55.87;100966.09;5084513;28;19936;-57
2022/07/25 00:21:51;;;;;;;;;;;;;;;23.51;56.18;100954.72;5081259;28;19920;-57
2022/07/25 00:24:17;;;;;;;;;;;;;;;23.48;56.08;100957.91;5072766;28;20298;-57
2022/07/25 00:26:42;;;;;;;;;;;;;;;23.44;56.21;100951.31;5073699;28;20284;-57
2022/07/25 00:29:07;;;;;;;;;;;;;;;23.43;56.23;100949.69;5077587;28;19924;-56
2022/07/25 00:31:32;;;;;;;;;;;;;;;23.42;56.05;100948.06;5080733;28;19935;-58
2022/07/25 00:33:57;;;;;;;;;;;;;;;23.38;56.31;100946.91;5084368;28;19951;-57
2022/07/25 00:36:22;;;;;;;;;;;;;;;23.35;56.25;100944.69;5081048;28;20262;-57
2022/07/25 00:38:49;;;;;;;;;;;;;;;23.34;56.36;100945.75;5091935;28;21300;-57
2022/07/25 00:41:14;;;;;;;;;;;;;;;23.33;56.42;100927.91;5085659;28;20373;-57
2022/07/25 00:43:43;;;;;;;;;;;;;;;23.30;56.40;100933.75;5089490;28;19935;-57
2022/07/25 00:46:11;;;;;;;;;;;;;;;23.29;56.40;100929.41;5081445;28;19999;-57
2022/07/25 00:48:36;;;;;;;;;;;;;;;23.27;56.54;100931.56;5078031;28;19920;-57
2022/07/25 00:51:02;;;;;;;;;;;;;;;23.23;56.18;100923.91;5085135;28;20006;-57
2022/07/25 00:53:27;;;;;;;;;;;;;;;23.20;56.38;100918.19;5077740;28;19920;-57
2022/07/25 00:55:53;;;;;;;;;;;;;;;23.18;56.42;100915.72;5084581;28;19966;-57
2022/07/25 00:58:18;;;;;;;;;;;;;;;23.17;56.45;100919.47;5089145;28;19920;-57
2022/07/25 01:00:43;;;;;;;;;;;;;;;23.14;56.47;100913.75;5085220;28;19920;-59
2022/07/25 01:03:08;;;;;;;;;;;;;;;23.11;56.60;100915.06;5093084;28;19920;-56
2022/07/25 01:05:34;;;;;;;;;;;;;;;23.10;56.46;100908.00;5090682;28;19931;-57
2022/07/25 01:07:59;;;;;;;;;;;;;;;23.08;56.61;100910.13;5090731;28;19921;-57
2022/07/25 01:10:24;;;;;;;;;;;;;;;23.07;56.49;100903.06;5082329;28;19929;-57
2022/07/25 01:12:53;;;;;;;;;;;;;;;23.05;56.63;100897.09;5077711;28;20081;-57
2022/07/25 01:15:19;;;;;;;;;;;;;;;23.02;56.63;100898.41;5075264;28;19921;-57
2022/07/25 01:17:45;;;;;;;;;;;;;;;22.97;56.73;100893.72;5085359;28;20315;-57
2022/07/25 01:20:17;;;;;;;;;;;;;;;22.96;56.63;100892.09;5085161;28;20050;-56
2022/07/25 01:22:43;;;;;;;;;;;;;;;22.94;56.68;100888.78;5081579;28;19927;-58
2022/07/25 01:25:08;;;;;;;;;;;;;;;22.94;56.82;100891.50;5093099;28;19920;-58
2022/07/25 01:27:33;;;;;;;;;;;;;;;22.92;56.60;100890.09;5080716;28;19977;-57
2022/07/25 01:29:58;;;;;;;;;;;;;;;22.91;56.69;100889.31;5067966;28;19921;-57
2022/07/25 01:32:24;;;;;;;;;;;;;;;22.90;56.50;100882.22;5082109;28;19927;-59
2022/07/25 01:34:49;;;;;;;;;;;;;;;22.88;56.41;100873.56;5082289;28;20010;-57
2022/07/25 01:37:14;;;;;;;;;;;;;;;22.86;56.57;100870.28;5078284;28;20383;-58
2022/07/25 01:39:39;;;;;;;;;;;;;;;22.84;56.54;100872.38;5074711;28;19970;-58
2022/07/25 01:42:05;;;;;;;;;;;;;;;22.82;56.50;100869.13;5084167;28;20374;-58
2022/07/25 01:44:30;;;;;;;;;;;;;;;22.81;56.59;100873.72;5082615;28;19928;-56
2022/07/25 01:46:55;;;;;;;;;;;;;;;22.79;56.69;100864.22;5085812;28;19920;-57
2022/07/25 01:49:20;;;;;;;;;;;;;;;22.79;56.61;100859.59;5076521;28;20356;-57
2022/07/25 01:51:45;;;;;;;;;;;;;;;22.79;56.36;100850.69;5086579;28;19920;-57
2022/07/25 01:54:10;;;;;;;;;;;;;;;22.78;56.37;100847.16;5076818;28;19931;-58
2022/07/25 01:56:36;;;;;;;;;;;;;;;22.79;56.36;100848.00;5093392;28;20011;-58
2022/07/25 01:59:01;;;;;;;;;;;;;;;22.79;56.21;100845.28;5082965;28;19974;-58
2022/07/25 02:01:26;;;;;;;;;;;;;;;22.79;56.21;100842.59;5081792;28;19959;-58
2022/07/25 02:03:51;;;;;;;;;;;;;;;22.79;56.21;100842.59;5088095;28;19999;-56
2022/07/25 02:06:17;;;;;;;;;;;;;;;22.77;56.21;100839.28;5077358;28;19928;-58
2022/07/25 02:08:43;;;;;;;;;;;;;;;22.77;56.24;100833.88;5076494;28;19939;-57
2022/07/25 02:11:08;;;;;;;;;;;;;;;22.75;56.32;100830.63;5105991;22;20006;-61
2022/07/25 02:13:33;;;;;;;;;;;;;;;22.74;56.26;100835.19;5112222;28;19965;-61
2022/07/25 02:15:58;;;;;;;;;;;;;;;22.74;56.28;100834.38;5108433;28;20343;-61
2022/07/25 02:18:24;;;;;;;;;;;;;;;22.73;55.89;100827.34;5106070;28;19919;-61
2022/07/25 02:20:49;;;;;;;;;;;;;;;22.73;56.08;100830.06;5111314;28;19943;-61
2022/07/25 02:23:14;;;;;;;;;;;;;;;22.73;55.89;100827.34;5106005;28;20401;-61
2022/07/25 02:25:39;;;;;;;;;;;;;;;22.72;55.94;100823.81;5113149;28;19920;-61
2022/07/25 02:28:04;;;;;;;;;;;;;;;22.74;55.76;100828.97;5112974;28;19924;-61
2022/07/25 02:30:30;;;;;;;;;;;;;;;22.74;55.70;100829.78;5109519;28;19927;-61
2022/07/25 02:32:55;;;;;;;;;;;;;;;22.74;55.74;100823.56;5104370;28;20026;-61
2022/07/25 02:35:20;;;;;;;;;;;;;;;22.73;55.51;100816.53;5109665;28;20358;-61
2022/07/25 02:37:45;;;;;;;;;;;;;;;22.73;55.58;100817.34;5103127;28;19920;-61
2022/07/25 02:40:11;;;;;;;;;;;;;;;22.73;55.52;100808.44;5102956;28;19974;-60
2022/07/25 02:42:36;;;;;;;;;;;;;;;22.70;55.56;100815.13;5107767;28;20490;-61
2022/07/25 02:45:01;;;;;;;;;;;;;;;22.66;55.54;100805.88;5109366;28;19927;-60
2022/07/25 02:47:26;;;;;;;;;;;;;;;22.65;55.61;100799.63;5112879;28;19923;-61
2022/07/25 02:49:51;;;;;;;;;;;;;;;22.66;55.45;100801.28;5114164;28;19938;-61
2022/07/25 02:52:17;;;;;;;;;;;;;;;22.66;55.60;100804.00;5114352;28;19927;-61
2022/07/25 02:54:42;;;;;;;;;;;;;;;22.64;55.45;100800.69;5108005;28;19920;-61
2022/07/25 02:57:07;;;;;;;;;;;;;;;22.64;55.42;100802.59;5111757;28;19973;-60
2022/07/25 02:59:32;;;;;;;;;;;;;;;22.63;55.42;100804.47;5111361;28;19920;-61
2022/07/25 03:01:57;;;;;;;;;;;;;;;22.61;55.36;100798.50;5101067;28;19920;-61
2022/07/25 03:04:22;;;;;;;;;;;;;;;22.62;55.31;100797.44;5100019;28;19952;-61
2022/07/25 03:06:48;;;;;;;;;;;;;;;22.61;55.34;100792.25;5111476;28;20348;-61
2022/07/25 03:09:13;;;;;;;;;;;;;;;22.57;55.46;100786.53;5098457;28;19927;-61
2022/07/25 03:11:38;;;;;;;;;;;;;;;22.56;55.34;100779.50;5086912;28;20290;-61
2022/07/25 03:14:03;;;;;;;;;;;;;;;22.55;55.19;100777.84;5089964;28;19926;-61
2022/07/25 03:16:28;;;;;;;;;;;;;;;22.54;55.29;100777.03;5091429;28;19920;-61
2022/07/25 03:18:54;;;;;;;;;;;;;;;22.54;55.19;100770.78;5072194;28;19984;-61
2022/07/25 03:21:19;;;;;;;;;;;;;;;22.54;55.13;100768.09;5090968;28;19923;-61
2022/07/25 03:23:44;;;;;;;;;;;;;;;22.53;55.13;100775.41;5090397;28;19920;-61
2022/07/25 03:26:09;;;;;;;;;;;;;;;22.53;55.12;100769.16;5091623;28;19927;-61
2022/07/25 03:28:35;;;;;;;;;;;;;;;22.51;55.06;100785.59;5091415;28;20423;-61
2022/07/25 03:31:00;;;;;;;;;;;;;;;22.51;55.12;100769.38;5091771;28;19927;-60
2022/07/25 03:33:25;;;;;;;;;;;;;;;22.51;54.95;100771.25;5086008;28;20453;-61
2022/07/25 03:35:50;;;;;;;;;;;;;;;22.51;54.86;100771.25;5091020;28;19924;-61
2022/07/25 03:38:16;;;;;;;;;;;;;;;22.49;54.97;100768.78;5090488;28;20478;-61
2022/07/25 03:40:41;;;;;;;;;;;;;;;22.50;54.99;100769.63;5090063;28;19920;-61
2022/07/25 03:43:06;;;;;;;;;;;;;;;22.48;55.02;100772.56;5089992;28;19931;-61
2022/07/25 03:45:31;;;;;;;;;;;;;;;22.42;55.08;100774.38;5091084;28;19920;-61
2022/07/25 03:47:57;;;;;;;;;;;;;;;22.41;54.99;100772.72;5088545;28;19928;-61
2022/07/25 03:50:22;;;;;;;;;;;;;;;22.39;55.10;100774.84;5087075;28;19919;-61
2022/07/25 03:52:47;;;;;;;;;;;;;;;22.43;55.00;100776.00;5086501;28;19924;-62
2022/07/25 03:55:12;;;;;;;;;;;;;;;22.38;55.08;100773.22;5082193;28;20387;-61
2022/07/25 03:57:38;;;;;;;;;;;;;;;22.35;55.20;100772.88;5091268;28;20366;-61
2022/07/25 04:00:08;;;;;;;;;;;;;;;22.33;55.16;100765.00;5077484;28;20019;-61
2022/07/25 04:02:33;;;;;;;;;;;;;;;22.31;55.30;100750.94;5080182;28;19962;-61
2022/07/25 04:04:58;;;;;;;;;;;;;;;22.27;55.22;100749.78;5089295;28;19963;-61
2022/07/25 04:07:24;;;;;;;;;;;;;;;22.27;55.21;100749.78;5088449;28;19920;-61
2022/07/25 04:09:51;;;;;;;;;;;;;;;22.27;55.29;100755.16;5089430;28;19920;-61
2022/07/25 04:12:16;;;;;;;;;;;;;;;22.26;55.19;100748.94;5031657;28;1715016;-61
2022/07/25 04:14:41;;;;;;;;;;;;;;;22.24;55.34;100761.03;5097016;28;19920;-61
2022/07/25 04:17:06;;;;;;;;;;;;;;;22.21;55.47;100750.75;5096842;28;19920;-61
2022/07/25 04:19:32;;;;;;;;;;;;;;;22.20;55.39;100754.50;5094591;28;19927;-61
2022/07/25 04:21:57;;;;;;;;;;;;;;;22.19;55.39;100747.47;5090085;28;19973;-61
2022/07/25 04:24:22;;;;;;;;;;;;;;;22.19;55.36;100758.28;5089393;28;19924;-61
2022/07/25 04:26:47;;;;;;;;;;;;;;;22.18;55.27;100746.63;5086662;28;20408;-61
2022/07/25 04:29:12;;;;;;;;;;;;;;;22.15;55.55;100742.53;5094863;28;19928;-61
2022/07/25 04:31:37;;;;;;;;;;;;;;;22.15;55.38;100745.25;5094732;28;20404;-61
2022/07/25 04:34:03;;;;;;;;;;;;;;;22.16;55.56;100765.78;5096986;28;19927;-61
2022/07/25 04:36:28;;;;;;;;;;;;;;;22.11;55.63;100752.19;5094634;28;19920;-61
2022/07/25 04:38:53;;;;;;;;;;;;;;;22.07;55.83;100745.63;5096659;28;19984;-60
2022/07/25 04:41:19;;;;;;;;;;;;;;;22.09;55.71;100759.72;5077616;28;19916;-61
2022/07/25 04:43:44;;;;;;;;;;;;;;;22.08;55.97;100758.06;5096238;28;19924;-60
2022/07/25 04:46:09;;;;;;;;;;;;;;;22.10;55.42;100755.94;5094016;28;20612;-61
2022/07/25 04:48:34;;;;;;;;;;;;;;;22.11;55.66;100744.06;5095756;28;19931;-61
2022/07/25 04:51:00;;;;;;;;;;;;;;;22.08;55.67;100747.28;5091896;28;19920;-60
2022/07/25 04:53:25;;;;;;;;;;;;;;;22.06;55.79;100735.91;5085471;28;19922;-60
2022/07/25 04:55:50;;;;;;;;;;;;;;;22.05;55.88;100736.94;5094801;28;19970;-61
2022/07/25 04:58:15;;;;;;;;;;;;;;;22.07;55.70;100745.63;5092837;28;20716;-61
2022/07/25 05:00:41;;;;;;;;;;;;;;;22.08;55.80;100746.44;5092349;28;20286;-61
2022/07/25 05:03:06;;;;;;;;;;;;;;;22.07;55.82;100751.03;5107536;28;19966;-60
2022/07/25 05:05:31;;;;;;;;;;;;;;;22.06;55.92;100754.81;5094073;28;19928;-61
2022/07/25 05:07:57;;;;;;;;;;;;;;;22.03;56.00;100744.47;5094867;28;19924;-61
2022/07/25 05:10:23;;;;;;;;;;;;;;;22.02;55.82;100740.94;5084132;28;19962;-60
2022/07/25 05:12:48;;;;;;;;;;;;;;;22.02;56.21;100740.13;5090178;28;19916;-60
2022/07/25 05:15:13;;;;;;;;;;;;;;;22.08;56.13;100749.13;5095908;28;20366;-63
2022/07/25 05:17:38;;;;;;;;;;;;;;;21.99;56.39;100754.09;5092795;28;19932;-60
2022/07/25 05:20:04;;;;;;;;;;;;;;;22.02;56.22;100753.63;5090379;28;20319;-60
2022/07/25 05:22:29;;;;;;;;;;;;;;;22.01;56.29;100758.19;5095215;28;19916;-60
2022/07/25 05:24:55;;;;;;;;;;;;;;;22.00;56.65;100750.38;5094650;28;19921;-59
2022/07/25 05:27:20;;;;;;;;;;;;;;;21.99;56.75;100743.31;5089815;28;19924;-59
2022/07/25 05:29:45;;;;;;;;;;;;;;;22.04;56.59;100752.34;5094954;28;19924;-59
2022/07/25 05:32:10;;;;;;;;;;;;;;;22.06;56.96;100754.81;5091133;28;19927;-59
2022/07/25 05:34:35;;;;;;;;;;;;;;;21.99;57.15;100748.69;5096399;28;19920;-58
2022/07/25 05:37:01;;;;;;;;;;;;;;;22.00;57.10;100751.16;5090487;28;19927;-58
2022/07/25 05:39:26;;;;;;;;;;;;;;;22.03;57.39;100755.28;5090233;28;19955;-58
2022/07/25 05:41:51;;;;;;;;;;;;;;;21.95;57.27;100761.06;5089500;28;20560;-58
2022/07/25 05:44:17;;;;;;;;;;;;;;;21.95;57.50;100761.88;5090336;28;19924;-58
2022/07/25 05:46:42;;;;;;;;;;;;;;;21.98;57.34;100763.25;5083405;28;19928;-58
2022/07/25 05:49:07;;;;;;;;;;;;;;;22.00;57.67;100750.38;5089259;28;19920;-58
2022/07/25 05:51:32;;;;;;;;;;;;;;;22.03;57.43;100749.88;5089606;28;19920;-59
2022/07/25 05:53:57;;;;;;;;;;;;;;;22.05;57.62;100753.13;5088685;28;20367;-59
2022/07/25 05:56:22;;;;;;;;;;;;;;;22.03;57.78;100755.28;5088499;28;19954;-59
2022/07/25 05:58:48;;;;;;;;;;;;;;;22.01;58.06;100762.81;5086345;28;20351;-58
2022/07/25 06:01:14;;;;;;;;;;;;;;;21.99;58.11;100770.31;5088969;28;19950;-58
2022/07/25 06:03:40;;;;;;;;;;;;;;;22.03;58.21;100776.88;5087034;28;19935;-58
2022/07/25 06:06:07;;;;;;;;;;;;;;;22.04;58.33;100781.22;5088982;28;19924;-58
2022/07/25 06:08:32;;;;;;;;;;;;;;;21.90;58.26;100781.50;5083535;28;19927;-60
2022/07/25 06:10:58;;;;;;;;;;;;;;;21.98;59.24;100779.47;5086423;28;20363;-58
2022/07/25 06:13:23;;;;;;;;;;;;;;;21.93;58.42;100782.88;5089054;28;19924;-59
2022/07/25 06:15:49;;;;;;;;;;;;;;;22.01;58.71;100779.00;5090604;28;20011;-59
2022/07/25 06:18:14;;;;;;;;;;;;;;;21.85;58.70;100775.97;5083732;28;19983;-58
2022/07/25 06:20:39;;;;;;;;;;;;;;;21.82;58.94;100781.03;5091039;28;19916;-57
2022/07/25 06:23:04;;;;;;;;;;;;;;;21.79;59.16;100778.84;5092783;28;20364;-59
2022/07/25 06:25:30;;;;;;;;;;;;;;;21.75;59.05;100778.47;5087799;28;19980;-58
2022/07/25 06:27:55;;;;;;;;;;;;;;;21.79;59.39;100782.34;5085479;28;19920;-58
2022/07/25 06:30:20;;;;;;;;;;;;;;;21.74;59.14;100785.75;5085413;28;19920;-59
2022/07/25 06:32:46;;;;;;;;;;;;;;;21.76;59.96;100785.53;5089908;28;20626;-60
2022/07/25 06:35:11;;;;;;;;;;;;;;;21.83;59.61;100791.59;5091375;28;19928;-60
2022/07/25 06:37:38;;;;;;;;;;;;;;;21.77;59.51;100782.56;5093342;28;19966;-60
2022/07/25 06:40:03;;;;;;;;;;;;;;;21.82;59.67;100784.56;5086795;28;19928;-61
2022/07/25 06:42:30;;;;;;;;;;;;;;;21.82;59.73;100781.88;5092903;28;19920;-60
2022/07/25 06:44:55;;;;;;;;;;;;;;;21.80;59.83;100781.28;5094013;28;19920;-61
2022/07/25 06:47:20;;;;;;;;;;;;;;;21.79;59.79;100790.44;5093983;28;19920;-61
2022/07/25 06:49:45;;;;;;;;;;;;;;;21.82;59.94;100795.38;5089143;28;19965;-60
2022/07/25 06:52:11;;;;;;;;;;;;;;;21.82;60.41;100792.66;5092209;28;20373;-60
2022/07/25 06:54:36;;;;;;;;;;;;;;;21.78;60.17;100796.91;5093028;28;19946;-60
2022/07/25 06:57:01;;;;;;;;;;;;;;;21.87;60.50;100795.44;5093018;28;19920;-58
2022/07/25 06:59:26;;;;;;;;;;;;;;;21.81;60.51;100780.22;5088069;28;20421;-60
2022/07/25 07:01:52;;;;;;;;;;;;;;;21.76;60.54;100788.22;5077407;28;19920;-61
2022/07/25 07:04:17;;;;;;;;;;;;;;;21.76;60.38;100783.63;5091780;28;19929;-58
2022/07/25 07:06:42;;;;;;;;;;;;;;;21.81;60.73;100788.31;5092481;28;20290;-58
2022/07/25 07:09:08;;;;;;;;;;;;;;;21.79;61.14;100786.94;5087584;28;19927;-58
2022/07/25 07:11:33;;;;;;;;;;;;;;;21.84;60.93;100782.44;5090155;28;20003;-59
2022/07/25 07:13:58;;;;;;;;;;;;;;;21.92;61.01;100783.13;5088673;28;19958;-58
2022/07/25 07:16:23;;;;;;;;;;;;;;;21.85;61.08;100791.38;5090936;28;19924;-58
2022/07/25 07:18:49;;;;;;;;;;;;;;;21.87;61.18;100790.03;5092801;28;19920;-58
2022/07/25 07:21:14;;;;;;;;;;;;;;;21.95;61.51;100791.56;5093407;28;19966;-57
2022/07/25 07:23:39;;;;;;;;;;;;;;;21.97;61.54;100783.22;5092283;28;19945;-58
2022/07/25 07:26:04;;;;;;;;;;;;;;;22.02;61.40;100784.13;5090090;28;19927;-58
2022/07/25 07:28:30;;;;;;;;;;;;;;;22.05;61.43;100788.25;5093041;28;19920;-58
2022/07/25 07:30:55;;;;;;;;;;;;;;;22.05;61.11;100785.53;5091256;28;19920;-58
2022/07/25 07:33:20;;;;;;;;;;;;;;;22.11;61.06;100779.19;5091179;28;19916;-57
2022/07/25 07:35:45;;;;;;;;;;;;;;;22.16;61.24;100791.97;5080196;28;19916;-58
2022/07/25 07:38:10;;;;;;;;;;;;;;;22.21;61.51;100785.84;5091864;28;20290;-58
2022/07/25 07:40:36;;;;;;;;;;;;;;;22.24;61.58;100799.69;5090746;28;19963;-58
2022/07/25 07:43:02;;;;;;;;;;;;;;;22.23;61.65;100795.34;5093108;28;20015;-58
2022/07/25 07:45:28;;;;;;;;;;;;;;;22.24;61.77;100788.06;5092963;28;19931;-58
2022/07/25 07:47:54;;;;;;;;;;;;;;;22.27;62.06;100799.22;5090780;28;19920;-58
2022/07/25 07:50:20;;;;;;;;;;;;;;;22.25;61.89;100795.13;5091699;28;19999;-58
2022/07/25 07:52:46;;;;;;;;;;;;;;;22.47;62.01;100794.41;5091439;28;19974;-58
2022/07/25 07:57:55;;;;;;;;;;;;;;;22.75;61.40;100800.88;5092594;28;20457;-58
2022/07/25 08:00:21;;;;;;;;;;;;;;;22.94;62.51;100812.28;5093499;28;20007;-58
2022/07/25 08:02:47;;;;;;;;;;;;;;;22.91;62.62;100802.78;5092933;28;19923;-58
2022/07/25 08:05:18;;;;;;;;;;;;;;;22.90;61.96;100806.53;5091845;28;20358;-58
2022/07/25 08:07:43;;;;;;;;;;;;;;;22.89;62.59;100804.91;5092593;28;19924;-58
2022/07/25 08:10:09;;;;;;;;;;;;;;;22.95;62.04;100814.72;5093264;28;19927;-58
2022/07/25 08:12:38;;;;;;;;;;;;;;;23.00;61.89;100805.91;5090712;28;19920;-58
2022/07/25 08:15:03;;;;;;;;;;;;;;;23.14;61.96;100811.78;5090034;28;20432;-58
2022/07/25 08:17:28;;;;;;;;;;;;;;;23.33;62.30;100806.16;5089102;28;19917;-58
2022/07/25 08:19:53;;;;;;;;;;;;;;;23.34;62.04;100805.09;5090791;28;20266;-58
2022/07/25 08:22:18;;;;;;;;;;;;;;;23.27;61.81;100799.00;5091576;28;19924;-59
2022/07/25 08:24:44;;;;;;;;;;;;;;;23.39;62.24;100813.28;5085759;28;19973;-58
2022/07/25 08:27:09;;;;;;;;;;;;;;;23.40;61.85;100804.09;5091723;28;19965;-58
2022/07/25 08:29:34;;;;;;;;;;;;;;;23.46;61.64;100804.97;5094468;28;20370;-58
2022/07/25 08:31:59;;;;;;;;;;;;;;;23.42;61.72;100804.66;5105466;28;19965;-58
2022/07/25 08:34:24;;;;;;;;;;;;;;;23.34;61.85;100810.50;5091698;28;20274;-58
2022/07/25 08:36:49;;;;;;;;;;;;;;;23.36;62.17;100824.59;5090565;28;19935;-58
2022/07/25 08:39:15;;;;;;;;;;;;;;;23.31;62.37;100822.63;5082941;28;20355;-58
2022/07/25 08:41:40;;;;;;;;;;;;;;;23.41;63.20;100816.53;5087853;28;20079;-59
2022/07/25 08:44:07;;;;;;;;;;;;;;;23.65;61.97;100819.84;5081424;28;20010;-60
2022/07/25 08:46:32;;;;;;;;;;;;;;;23.65;62.32;100816.31;5082032;28;20400;-58
2022/07/25 08:48:58;;;;;;;;;;;;;;;23.77;62.30;100808.06;5082012;28;19920;-60
2022/07/25 08:51:23;;;;;;;;;;;;;;;23.90;61.58;100806.88;5088679;28;20346;-60
2022/07/25 08:53:49;;;;;;;;;;;;;;;24.03;61.45;100817.34;5083702;28;19924;-61
2022/07/25 08:56:14;;;;;;;;;;;;;;;24.16;60.67;100812.63;5091719;28;19964;-60
2022/07/25 08:58:40;;;;;;;;;;;;;;;24.08;60.88;100821.22;5094856;28;20249;-60
2022/07/25 09:01:06;;;;;;;;;;;;;;;24.02;60.98;100818.41;5095564;28;19920;-61
2022/07/25 09:03:31;;;;;;;;;;;;;;;24.00;61.08;100823.28;5095588;28;19927;-61
2022/07/25 09:05:57;;;;;;;;;;;;;;;23.96;61.02;100827.53;5094534;28;20005;-61
2022/07/25 09:08:22;;;;;;;;;;;;;;;23.87;61.18;100827.16;5095915;28;19920;-61
2022/07/25 09:10:49;;;;;;;;;;;;;;;23.85;63.70;100820.38;5095632;28;20022;-61
2022/07/25 09:13:14;;;;;;;;;;;;;;;24.21;61.26;100830.84;5088195;28;19920;-58
2022/07/25 09:15:39;;;;;;;;;;;;;;;24.16;60.90;100827.00;5099107;28;19927;-58
2022/07/25 09:18:12;;;;;;;;;;;;;;;24.29;61.13;100825.81;5095460;28;19966;-58
2022/07/25 09:20:42;;;;;;;;;;;;;;;24.45;60.60;100828.66;5095677;28;19919;-58
2022/07/25 09:23:07;;;;;;;;;;;;;;;24.50;60.32;100825.16;5090285;28;19923;-58
2022/07/25 09:25:33;;;;;;;;;;;;;;;24.45;59.79;100820.53;5096994;28;20017;-58
2022/07/25 09:28:11;;;;;;;;;;;;;;;24.51;58.98;100832.25;5092185;28;19945;-58
2022/07/25 09:30:38;;;;;;;;;;;;;;;24.64;58.14;100836.41;5095284;28;19999;-58
2022/07/25 09:33:03;;;;;;;;;;;;;;;24.56;58.82;100835.81;5087618;28;19959;-58
2022/07/25 09:35:28;;;;;;;;;;;;;;;24.64;57.99;100839.13;5092386;28;19952;-58
2022/07/25 09:37:54;;;;;;;;;;;;;;;24.82;57.36;100855.06;5092311;28;19928;-58
2022/07/25 09:40:19;;;;;;;;;;;;;;;24.89;57.52;100854.03;5095174;28;20007;-59
2022/07/25 09:42:48;;;;;;;;;;;;;;;24.96;56.10;100862.78;5094547;28;19989;-58
2022/07/25 09:45:14;;;;;;;;;;;;;;;25.00;55.57;100865.81;5094382;28;19920;-58
2022/07/25 09:47:51;;;;;;;;;;;;;;;24.91;55.76;100862.75;5093001;28;19935;-59
2022/07/25 09:50:16;;;;;;;;;;;;;;;24.90;56.10;100866.50;5089883;28;20027;-58
2022/07/25 09:52:43;;;;;;;;;;;;;;;24.97;56.70;100856.28;5090408;28;20006;-58
2022/07/25 09:55:09;;;;;;;;;;;;;;;25.11;55.37;100864.81;5090812;28;19943;-59
2022/07/25 09:57:35;;;;;;;;;;;;;;;24.99;56.02;100864.97;5094829;28;19928;-59
2022/07/25 10:00:00;;;;;;;;;;;;;;;24.95;56.37;100861.13;5093200;28;20222;-60
2022/07/25 10:02:31;;;;;;;;;;;;;;;25.00;56.32;100861.19;5104480;28;19928;-56
2022/07/25 10:05:14;;;;;;;;;;;;;;;25.06;56.23;100860.16;5098009;28;19962;-57
2022/07/25 10:07:42;;;;;;;;;;;;;;;25.18;55.79;100859.97;5092139;28;19920;-58
2022/07/25 10:10:07;;;;;;;;;;;;;;;25.29;55.03;100863.56;5090078;28;19924;-59
2022/07/25 10:12:32;;;;;;;;;;;;;;;25.28;55.09;100867.38;5092576;28;20400;-59
2022/07/25 10:15:11;;;;;;;;;;;;;;;25.44;54.37;100875.59;5092149;28;19974;-59
2022/07/25 10:17:37;;;;;;;;;;;;;;;25.45;54.54;100871.84;5089727;28;19920;-58
2022/07/25 10:20:05;;;;;;;;;;;;;;;25.49;55.21;100867.50;5101771;28;19927;-59
2022/07/25 10:22:37;;;;;;;;;;;;;;;25.79;53.37;100864.19;5090888;28;20379;-59
2022/07/25 10:25:12;;;;;;;;;;;;;;;25.60;53.71;100863.81;5099999;28;19957;-59
2022/07/25 10:27:42;;;;;;;;;;;;;;;25.42;53.50;100866.91;5096470;28;19925;-58
2022/07/25 10:30:09;;;;;;;;;;;;;;;25.37;53.99;100865.78;5099378;28;19931;-58
2022/07/25 10:32:34;;;;;;;;;;;;;;;25.23;54.18;100864.63;5091507;28;19920;-58
2022/07/25 10:35:10;;;;;;;;;;;;;;;25.20;53.67;100867.84;5102488;28;19942;-58
2022/07/25 10:37:35;;;;;;;;;;;;;;;25.17;54.29;100865.66;5091091;28;19973;-59
2022/07/25 10:40:02;;;;;;;;;;;;;;;25.32;53.65;100879.34;5089496;28;19920;-58
2022/07/25 10:42:31;;;;;;;;;;;;;;;25.62;51.18;100880.66;5090823;28;19928;-58
2022/07/25 10:45:00;;;;;;;;;;;;;;;25.60;51.02;100874.66;5098823;28;20292;-59
2022/07/25 10:47:26;;;;;;;;;;;;;;;25.54;51.36;100881.13;5087731;28;19935;-58
2022/07/25 10:49:58;;;;;;;;;;;;;;;25.36;51.66;100875.03;5090916;28;19931;-61
2022/07/25 10:52:26;;;;;;;;;;;;;;;25.38;51.40;100880.19;5092722;28;19924;-62
2022/07/25 10:54:53;;;;;;;;;;;;;;;25.39;51.56;100879.94;5092305;28;19964;-61
2022/07/25 10:57:18;;;;;;;;;;;;;;;25.45;50.91;100879.97;5092368;28;19920;-59
2022/07/25 10:59:44;;;;;;;;;;;;;;;25.37;51.83;100886.72;5086119;28;19935;-59
2022/07/25 11:02:16;;;;;;;;;;;;;;;25.53;51.54;100895.81;5085780;28;19920;-59
2022/07/25 11:04:42;;;;;;;;;;;;;;;25.38;52.17;100888.34;5090738;28;20295;-59
2022/07/25 11:07:11;;;;;;;;;;;;;;;25.37;52.32;100895.66;5099074;28;19953;-59
2022/07/25 11:09:37;;;;;;;;;;;;;;;25.42;51.01;100899.50;5088855;28;19920;-58
2022/07/25 11:12:03;;;;;;;;;;;;;;;25.43;51.20;100901.94;5092208;28;19943;-59
2022/07/25 11:14:40;;;;;;;;;;;;;;;25.33;51.67;100899.97;5094256;28;19926;-59
2022/07/25 11:17:21;;;;;;;;;;;;;;;25.31;51.56;100898.59;5092591;28;20073;-59
2022/07/25 11:20:06;;;;;;;;;;;;;;;25.24;51.41;100901.53;5088467;28;19935;-59
2022/07/25 11:22:31;;;;;;;;;;;;;;;25.21;51.80;100902.06;5090454;28;19969;-59
2022/07/25 11:24:57;;;;;;;;;;;;;;;25.29;51.62;100906.16;5092099;28;19923;-58
2022/07/25 11:27:22;;;;;;;;;;;;;;;25.11;51.76;100905.50;5091359;28;19931;-58
2022/07/25 11:29:48;;;;;;;;;;;;;;;25.05;52.51;100912.75;5090909;28;19927;-58
2022/07/25 11:32:13;;;;;;;;;;;;;;;25.00;52.19;100915.44;5092272;28;19943;-58
2022/07/25 11:34:46;;;;;;;;;;;;;;;24.93;52.45;100921.09;5089705;28;19920;-58
2022/07/25 11:37:11;;;;;;;;;;;;;;;24.85;53.11;100919.63;5090245;28;19928;-61
2022/07/25 11:39:38;;;;;;;;;;;;;;;25.00;52.63;100930.91;5090147;28;19943;-61
2022/07/25 11:42:08;;;;;;;;;;;;;;;24.96;53.12;100923.25;5089758;28;19920;-61
2022/07/25 11:44:40;;;;;;;;;;;;;;;24.88;53.05;100923.75;5090291;28;20378;-62
2022/07/25 11:47:06;;;;;;;;;;;;;;;24.96;52.95;100930.59;5090603;28;19916;-62
2022/07/25 11:49:45;;;;;;;;;;;;;;;25.05;52.57;100923.63;5103172;28;19997;-62
2022/07/25 11:52:17;;;;;;;;;;;;;;;25.29;52.52;100923.28;5084865;28;20412;-61
2022/07/25 11:54:49;;;;;;;;;;;;;;;25.29;52.72;100928.69;5089780;28;20008;-61
2022/07/25 11:57:19;;;;;;;;;;;;;;;25.18;52.36;100929.69;5090635;28;19962;-62
2022/07/25 11:59:44;;;;;;;;;;;;;;;24.94;52.47;100938.16;5091451;28;19924;-59
2022/07/25 12:02:19;;;;;;;;;;;;;;;24.95;52.43;100950.63;5093547;28;20358;-59
2022/07/25 12:04:51;;;;;;;;;;;;;;;24.89;52.45;100943.53;5090078;28;19964;-59
2022/07/25 12:07:17;;;;;;;;;;;;;;;24.57;53.33;100950.50;5086145;28;19924;-59
2022/07/25 12:09:42;;;;;;;;;;;;;;;24.58;53.22;100942.09;5091876;28;19920;-58
2022/07/25 12:12:08;;;;;;;;;;;;;;;24.67;52.93;100947.88;5089276;28;20061;-58
2022/07/25 12:14:42;;;;;;;;;;;;;;;24.55;52.90;100958.03;5090928;28;20330;-58
2022/07/25 12:17:08;;;;;;;;;;;;;;;24.70;52.33;100960.09;5089069;28;19935;-58
2022/07/25 12:19:33;;;;;;;;;;;;;;;24.67;50.02;100949.78;5088610;28;19920;-58
2022/07/25 12:21:58;;;;;;;;;;;;;;;24.61;51.96;100945.38;5085916;28;20292;-59
2022/07/25 12:24:23;;;;;;;;;;;;;;;24.70;50.85;100954.69;5084861;28;19928;-58
2022/07/25 12:26:48;;;;;;;;;;;;;;;24.71;50.60;100956.31;5085098;28;20000;-58
2022/07/25 12:29:14;;;;;;;;;;;;;;;24.58;50.92;100952.94;5076530;28;20322;-59
2022/07/25 12:31:39;;;;;;;;;;;;;;;24.65;50.50;100958.16;5077836;28;19966;-58